sensor_id;sensor_type;location;lat;lon;timestamp;P1;durP1;ratioP1;P2;durP2;ratioP2
54945;SDS011;40846;44.788;20.486;2022-08-21T00:01:42;46.10;;;25.67;;
54945;SDS011;40846;44.788;20.486;2022-08-21T00:04:11;47.75;;;25.27;;
54945;SDS011;40846;44.788;20.486;2022-08-21T00:06:37;39.60;;;24.05;;
54945;SDS011;40846;44.788;20.486;2022-08-21T00:09:05;38.40;;;24.10;;
54945;SDS011;40846;44.788;20.486;2022-08-21T00:11:34;38.95;;;25.48;;
54945;SDS011;40846;44.788;20.486;2022-08-21T00:14:02;39.80;;;24.70;;
54945;SDS011;40846;44.788;20.486;2022-08-21T00:16:28;45.22;;;25.17;;
54945;SDS011;40846;44.788;20.486;2022-08-21T00:18:55;45.83;;;25.27;;
54945;SDS011;40846;44.788;20.486;2022-08-21T00:21:20;39.30;;;25.08;;
54945;SDS011;40846;44.788;20.486;2022-08-21T00:23:47;41.90;;;25.15;;
54945;SDS011;40846;44.788;20.486;2022-08-21T00:26:13;45.22;;;28.45;;
54945;SDS011;40846;44.788;20.486;2022-08-21T00:28:39;60.63;;;32.22;;
54945;SDS011;40846;44.788;20.486;2022-08-21T00:31:04;56.58;;;33.90;;
54945;SDS011;40846;44.788;20.486;2022-08-21T00:33:31;46.60;;;31.30;;
54945;SDS011;40846;44.788;20.486;2022-08-21T00:35:57;48.40;;;33.67;;
54945;SDS011;40846;44.788;20.486;2022-08-21T00:38:23;42.50;;;30.60;;
54945;SDS011;40846;44.788;20.486;2022-08-21T00:40:51;38.67;;;27.17;;
54945;SDS011;40846;44.788;20.486;2022-08-21T00:43:21;36.20;;;21.33;;
54945;SDS011;40846;44.788;20.486;2022-08-21T00:45:49;26.33;;;18.17;;
54945;SDS011;40846;44.788;20.486;2022-08-21T00:48:15;33.17;;;17.83;;
54945;SDS011;40846;44.788;20.486;2022-08-21T00:50:43;26.90;;;15.43;;
54945;SDS011;40846;44.788;20.486;2022-08-21T00:53:10;21.40;;;13.07;;
54945;SDS011;40846;44.788;20.486;2022-08-21T00:55:39;23.60;;;12.45;;
54945;SDS011;40846;44.788;20.486;2022-08-21T00:58:06;18.00;;;10.85;;
54945;SDS011;40846;44.788;20.486;2022-08-21T01:00:39;17.83;;;8.73;;
54945;SDS011;40846;44.788;20.486;2022-08-21T01:03:07;21.48;;;9.20;;
54945;SDS011;40846;44.788;20.486;2022-08-21T01:05:33;13.57;;;7.30;;
54945;SDS011;40846;44.788;20.486;2022-08-21T01:07:59;13.07;;;6.82;;
54945;SDS011;40846;44.788;20.486;2022-08-21T01:10:25;15.70;;;7.00;;
54945;SDS011;40846;44.788;20.486;2022-08-21T01:12:52;14.25;;;6.20;;
54945;SDS011;40846;44.788;20.486;2022-08-21T01:15:19;9.38;;;5.82;;
54945;SDS011;40846;44.788;20.486;2022-08-21T01:17:47;10.18;;;4.80;;
54945;SDS011;40846;44.788;20.486;2022-08-21T01:20:14;6.55;;;2.95;;
54945;SDS011;40846;44.788;20.486;2022-08-21T01:22:41;6.82;;;2.60;;
54945;SDS011;40846;44.788;20.486;2022-08-21T01:25:08;5.40;;;2.40;;
54945;SDS011;40846;44.788;20.486;2022-08-21T01:27:34;4.38;;;2.40;;
54945;SDS011;40846;44.788;20.486;2022-08-21T01:32:49;3.85;;;2.42;;
54945;SDS011;40846;44.788;20.486;2022-08-21T01:35:16;6.65;;;3.08;;
54945;SDS011;40846;44.788;20.486;2022-08-21T01:37:44;4.47;;;2.70;;
54945;SDS011;40846;44.788;20.486;2022-08-21T01:40:11;6.43;;;2.80;;
54945;SDS011;40846;44.788;20.486;2022-08-21T01:42:37;6.00;;;3.03;;
54945;SDS011;40846;44.788;20.486;2022-08-21T01:45:04;6.38;;;3.20;;
54945;SDS011;40846;44.788;20.486;2022-08-21T01:47:30;8.20;;;2.90;;
54945;SDS011;40846;44.788;20.486;2022-08-21T01:49:56;4.63;;;2.95;;
54945;SDS011;40846;44.788;20.486;2022-08-21T01:52:22;6.43;;;2.90;;
54945;SDS011;40846;44.788;20.486;2022-08-21T01:54:48;5.00;;;2.53;;
54945;SDS011;40846;44.788;20.486;2022-08-21T01:57:14;4.05;;;2.70;;
54945;SDS011;40846;44.788;20.486;2022-08-21T01:59:40;6.43;;;2.30;;
54945;SDS011;40846;44.788;20.486;2022-08-21T02:02:06;4.80;;;2.40;;
54945;SDS011;40846;44.788;20.486;2022-08-21T02:04:32;5.07;;;2.80;;
54945;SDS011;40846;44.788;20.486;2022-08-21T02:06:59;4.18;;;2.25;;
54945;SDS011;40846;44.788;20.486;2022-08-21T02:09:26;5.72;;;2.53;;
54945;SDS011;40846;44.788;20.486;2022-08-21T02:11:53;4.53;;;2.30;;
54945;SDS011;40846;44.788;20.486;2022-08-21T02:14:19;5.13;;;2.20;;
54945;SDS011;40846;44.788;20.486;2022-08-21T02:16:45;4.80;;;2.50;;
54945;SDS011;40846;44.788;20.486;2022-08-21T02:19:12;4.18;;;2.30;;
54945;SDS011;40846;44.788;20.486;2022-08-21T02:21:39;4.45;;;2.75;;
54945;SDS011;40846;44.788;20.486;2022-08-21T02:24:05;5.20;;;2.50;;
54945;SDS011;40846;44.788;20.486;2022-08-21T02:26:31;5.38;;;2.63;;
54945;SDS011;40846;44.788;20.486;2022-08-21T02:28:58;7.35;;;3.08;;
54945;SDS011;40846;44.788;20.486;2022-08-21T02:31:24;7.20;;;3.30;;
54945;SDS011;40846;44.788;20.486;2022-08-21T02:33:50;7.75;;;3.47;;
54945;SDS011;40846;44.788;20.486;2022-08-21T02:36:16;6.25;;;3.35;;
54945;SDS011;40846;44.788;20.486;2022-08-21T02:38:42;6.95;;;3.38;;
54945;SDS011;40846;44.788;20.486;2022-08-21T02:41:12;7.68;;;3.30;;
54945;SDS011;40846;44.788;20.486;2022-08-21T02:43:40;5.88;;;3.40;;
54945;SDS011;40846;44.788;20.486;2022-08-21T02:46:07;4.93;;;2.63;;
54945;SDS011;40846;44.788;20.486;2022-08-21T02:48:35;10.90;;;3.67;;
54945;SDS011;40846;44.788;20.486;2022-08-21T02:51:03;7.72;;;2.92;;
54945;SDS011;40846;44.788;20.486;2022-08-21T02:53:34;6.72;;;2.83;;
54945;SDS011;40846;44.788;20.486;2022-08-21T02:56:02;6.45;;;2.70;;
54945;SDS011;40846;44.788;20.486;2022-08-21T02:58:31;5.00;;;2.90;;
54945;SDS011;40846;44.788;20.486;2022-08-21T03:00:59;7.03;;;3.10;;
54945;SDS011;40846;44.788;20.486;2022-08-21T03:03:25;4.70;;;2.50;;
54945;SDS011;40846;44.788;20.486;2022-08-21T03:05:53;4.53;;;3.33;;
54945;SDS011;40846;44.788;20.486;2022-08-21T03:08:19;5.60;;;2.88;;
54945;SDS011;40846;44.788;20.486;2022-08-21T03:10:47;6.63;;;3.70;;
54945;SDS011;40846;44.788;20.486;2022-08-21T03:13:16;5.18;;;2.88;;
54945;SDS011;40846;44.788;20.486;2022-08-21T03:15:42;6.35;;;2.80;;
54945;SDS011;40846;44.788;20.486;2022-08-21T03:18:10;4.00;;;2.08;;
54945;SDS011;40846;44.788;20.486;2022-08-21T03:20:37;7.90;;;3.45;;
54945;SDS011;40846;44.788;20.486;2022-08-21T03:23:05;5.15;;;2.42;;
54945;SDS011;40846;44.788;20.486;2022-08-21T03:25:32;5.72;;;2.70;;
54945;SDS011;40846;44.788;20.486;2022-08-21T03:28:02;6.90;;;2.50;;
54945;SDS011;40846;44.788;20.486;2022-08-21T03:30:29;5.38;;;2.63;;
54945;SDS011;40846;44.788;20.486;2022-08-21T03:32:56;4.72;;;2.70;;
54945;SDS011;40846;44.788;20.486;2022-08-21T03:35:24;4.15;;;3.00;;
54945;SDS011;40846;44.788;20.486;2022-08-21T03:37:50;4.50;;;3.08;;
54945;SDS011;40846;44.788;20.486;2022-08-21T03:40:17;4.68;;;3.30;;
54945;SDS011;40846;44.788;20.486;2022-08-21T03:42:45;5.95;;;2.50;;
54945;SDS011;40846;44.788;20.486;2022-08-21T03:45:14;5.55;;;3.42;;
54945;SDS011;40846;44.788;20.486;2022-08-21T03:48:03;3.33;;;2.70;;
54945;SDS011;40846;44.788;20.486;2022-08-21T03:50:30;3.25;;;2.65;;
54945;SDS011;40846;44.788;20.486;2022-08-21T03:52:57;4.70;;;2.83;;
54945;SDS011;40846;44.788;20.486;2022-08-21T03:55:23;4.45;;;3.55;;
54945;SDS011;40846;44.788;20.486;2022-08-21T03:57:50;6.13;;;4.20;;
54945;SDS011;40846;44.788;20.486;2022-08-21T04:00:17;5.72;;;3.67;;
54945;SDS011;40846;44.788;20.486;2022-08-21T04:02:44;5.93;;;3.70;;
54945;SDS011;40846;44.788;20.486;2022-08-21T04:05:11;8.23;;;5.10;;
54945;SDS011;40846;44.788;20.486;2022-08-21T04:07:38;9.30;;;7.30;;
54945;SDS011;40846;44.788;20.486;2022-08-21T04:10:05;8.63;;;6.55;;
54945;SDS011;40846;44.788;20.486;2022-08-21T04:12:31;9.13;;;6.25;;
54945;SDS011;40846;44.788;20.486;2022-08-21T04:14:57;9.68;;;7.90;;
54945;SDS011;40846;44.788;20.486;2022-08-21T04:17:23;10.77;;;7.80;;
54945;SDS011;40846;44.788;20.486;2022-08-21T04:19:49;11.82;;;9.00;;
54945;SDS011;40846;44.788;20.486;2022-08-21T04:22:15;16.33;;;9.10;;
54945;SDS011;40846;44.788;20.486;2022-08-21T04:24:41;13.18;;;9.48;;
54945;SDS011;40846;44.788;20.486;2022-08-21T04:27:07;15.05;;;10.13;;
54945;SDS011;40846;44.788;20.486;2022-08-21T04:29:33;16.10;;;10.98;;
54945;SDS011;40846;44.788;20.486;2022-08-21T04:31:59;14.30;;;9.95;;
54945;SDS011;40846;44.788;20.486;2022-08-21T04:34:24;11.98;;;9.70;;
54945;SDS011;40846;44.788;20.486;2022-08-21T04:36:50;14.85;;;9.95;;
54945;SDS011;40846;44.788;20.486;2022-08-21T04:39:16;12.50;;;9.32;;
54945;SDS011;40846;44.788;20.486;2022-08-21T04:41:42;12.98;;;9.15;;
54945;SDS011;40846;44.788;20.486;2022-08-21T04:44:07;15.88;;;10.82;;
54945;SDS011;40846;44.788;20.486;2022-08-21T04:46:33;14.20;;;9.57;;
54945;SDS011;40846;44.788;20.486;2022-08-21T04:48:59;16.50;;;10.00;;
54945;SDS011;40846;44.788;20.486;2022-08-21T04:51:27;11.68;;;9.13;;
54945;SDS011;40846;44.788;20.486;2022-08-21T04:53:58;16.55;;;8.80;;
54945;SDS011;40846;44.788;20.486;2022-08-21T04:56:28;10.98;;;7.88;;
54945;SDS011;40846;44.788;20.486;2022-08-21T04:58:57;12.00;;;7.72;;
54945;SDS011;40846;44.788;20.486;2022-08-21T05:01:28;18.58;;;8.90;;
54945;SDS011;40846;44.788;20.486;2022-08-21T05:03:56;13.60;;;7.95;;
54945;SDS011;40846;44.788;20.486;2022-08-21T05:06:24;12.10;;;9.07;;
54945;SDS011;40846;44.788;20.486;2022-08-21T05:08:53;15.48;;;8.27;;
54945;SDS011;40846;44.788;20.486;2022-08-21T05:11:21;12.48;;;7.78;;
54945;SDS011;40846;44.788;20.486;2022-08-21T05:13:47;12.40;;;7.88;;
54945;SDS011;40846;44.788;20.486;2022-08-21T05:16:13;11.93;;;7.07;;
54945;SDS011;40846;44.788;20.486;2022-08-21T05:18:40;13.48;;;8.30;;
54945;SDS011;40846;44.788;20.486;2022-08-21T05:21:07;17.70;;;9.77;;
54945;SDS011;40846;44.788;20.486;2022-08-21T05:23:32;15.70;;;10.38;;
54945;SDS011;40846;44.788;20.486;2022-08-21T05:25:58;14.65;;;10.63;;
54945;SDS011;40846;44.788;20.486;2022-08-21T05:28:26;18.27;;;10.98;;
54945;SDS011;40846;44.788;20.486;2022-08-21T05:30:52;14.40;;;10.88;;
54945;SDS011;40846;44.788;20.486;2022-08-21T05:33:18;16.40;;;11.15;;
54945;SDS011;40846;44.788;20.486;2022-08-21T05:35:44;15.85;;;11.18;;
54945;SDS011;40846;44.788;20.486;2022-08-21T05:38:10;16.52;;;11.55;;
54945;SDS011;40846;44.788;20.486;2022-08-21T05:40:36;17.60;;;11.70;;
54945;SDS011;40846;44.788;20.486;2022-08-21T05:43:02;19.60;;;11.63;;
54945;SDS011;40846;44.788;20.486;2022-08-21T05:45:29;19.58;;;11.65;;
54945;SDS011;40846;44.788;20.486;2022-08-21T05:47:57;20.25;;;13.07;;
54945;SDS011;40846;44.788;20.486;2022-08-21T05:50:23;15.68;;;12.10;;
54945;SDS011;40846;44.788;20.486;2022-08-21T05:52:49;21.33;;;12.13;;
54945;SDS011;40846;44.788;20.486;2022-08-21T05:55:14;17.65;;;10.77;;
54945;SDS011;40846;44.788;20.486;2022-08-21T05:57:40;18.35;;;10.98;;
54945;SDS011;40846;44.788;20.486;2022-08-21T06:00:09;15.60;;;10.07;;
54945;SDS011;40846;44.788;20.486;2022-08-21T06:02:37;17.45;;;10.15;;
54945;SDS011;40846;44.788;20.486;2022-08-21T06:05:03;16.35;;;10.10;;
54945;SDS011;40846;44.788;20.486;2022-08-21T06:07:32;19.83;;;10.95;;
54945;SDS011;40846;44.788;20.486;2022-08-21T06:09:58;16.80;;;12.35;;
54945;SDS011;40846;44.788;20.486;2022-08-21T06:12:25;18.85;;;12.30;;
54945;SDS011;40846;44.788;20.486;2022-08-21T06:14:51;17.40;;;11.15;;
54945;SDS011;40846;44.788;20.486;2022-08-21T06:17:17;21.45;;;11.02;;
54945;SDS011;40846;44.788;20.486;2022-08-21T06:19:43;17.17;;;10.95;;
54945;SDS011;40846;44.788;20.486;2022-08-21T06:22:09;18.38;;;11.10;;
54945;SDS011;40846;44.788;20.486;2022-08-21T06:24:35;22.13;;;11.05;;
54945;SDS011;40846;44.788;20.486;2022-08-21T06:27:05;20.65;;;12.15;;
54945;SDS011;40846;44.788;20.486;2022-08-21T06:29:32;19.88;;;11.73;;
54945;SDS011;40846;44.788;20.486;2022-08-21T06:31:59;14.82;;;10.38;;
54945;SDS011;40846;44.788;20.486;2022-08-21T06:34:25;16.10;;;10.48;;
54945;SDS011;40846;44.788;20.486;2022-08-21T06:36:51;17.65;;;11.07;;
54945;SDS011;40846;44.788;20.486;2022-08-21T06:39:17;19.33;;;10.45;;
54945;SDS011;40846;44.788;20.486;2022-08-21T06:41:44;17.92;;;10.32;;
54945;SDS011;40846;44.788;20.486;2022-08-21T06:44:10;18.38;;;10.25;;
54945;SDS011;40846;44.788;20.486;2022-08-21T06:46:36;15.52;;;10.18;;
54945;SDS011;40846;44.788;20.486;2022-08-21T06:49:02;24.70;;;12.35;;
54945;SDS011;40846;44.788;20.486;2022-08-21T06:51:29;18.55;;;11.80;;
54945;SDS011;40846;44.788;20.486;2022-08-21T06:53:55;15.13;;;10.55;;
54945;SDS011;40846;44.788;20.486;2022-08-21T06:56:21;15.30;;;9.85;;
54945;SDS011;40846;44.788;20.486;2022-08-21T06:58:47;15.27;;;10.38;;
54945;SDS011;40846;44.788;20.486;2022-08-21T07:01:13;17.08;;;9.90;;
54945;SDS011;40846;44.788;20.486;2022-08-21T07:03:40;15.18;;;9.50;;
54945;SDS011;40846;44.788;20.486;2022-08-21T07:06:07;12.30;;;8.45;;
54945;SDS011;40846;44.788;20.486;2022-08-21T07:08:34;15.30;;;8.95;;
54945;SDS011;40846;44.788;20.486;2022-08-21T07:11:01;10.68;;;7.82;;
54945;SDS011;40846;44.788;20.486;2022-08-21T07:13:28;13.57;;;9.15;;
54945;SDS011;40846;44.788;20.486;2022-08-21T07:15:54;13.90;;;8.18;;
54945;SDS011;40846;44.788;20.486;2022-08-21T07:18:21;13.50;;;8.27;;
54945;SDS011;40846;44.788;20.486;2022-08-21T07:20:47;16.90;;;9.18;;
54945;SDS011;40846;44.788;20.486;2022-08-21T07:23:20;14.70;;;7.88;;
54945;SDS011;40846;44.788;20.486;2022-08-21T07:25:48;9.55;;;7.47;;
54945;SDS011;40846;44.788;20.486;2022-08-21T07:28:14;14.23;;;8.15;;
54945;SDS011;40846;44.788;20.486;2022-08-21T07:30:40;12.32;;;7.82;;
54945;SDS011;40846;44.788;20.486;2022-08-21T07:33:06;15.55;;;7.55;;
54945;SDS011;40846;44.788;20.486;2022-08-21T07:35:32;18.38;;;7.38;;
54945;SDS011;40846;44.788;20.486;2022-08-21T07:37:58;15.55;;;7.72;;
54945;SDS011;40846;44.788;20.486;2022-08-21T07:40:27;15.32;;;7.32;;
54945;SDS011;40846;44.788;20.486;2022-08-21T07:42:53;11.45;;;7.28;;
54945;SDS011;40846;44.788;20.486;2022-08-21T07:45:20;16.80;;;7.95;;
54945;SDS011;40846;44.788;20.486;2022-08-21T07:47:47;15.35;;;7.47;;
54945;SDS011;40846;44.788;20.486;2022-08-21T07:50:13;14.10;;;8.45;;
54945;SDS011;40846;44.788;20.486;2022-08-21T07:52:39;13.80;;;7.72;;
54945;SDS011;40846;44.788;20.486;2022-08-21T07:55:06;16.75;;;9.13;;
54945;SDS011;40846;44.788;20.486;2022-08-21T07:57:33;11.30;;;6.90;;
54945;SDS011;40846;44.788;20.486;2022-08-21T07:59:59;10.43;;;6.22;;
54945;SDS011;40846;44.788;20.486;2022-08-21T08:02:26;11.25;;;6.55;;
54945;SDS011;40846;44.788;20.486;2022-08-21T08:04:52;12.77;;;6.63;;
54945;SDS011;40846;44.788;20.486;2022-08-21T08:07:18;9.32;;;6.47;;
54945;SDS011;40846;44.788;20.486;2022-08-21T08:09:45;9.82;;;6.28;;
54945;SDS011;40846;44.788;20.486;2022-08-21T08:12:11;14.18;;;7.05;;
54945;SDS011;40846;44.788;20.486;2022-08-21T08:14:37;9.40;;;7.15;;
54945;SDS011;40846;44.788;20.486;2022-08-21T08:17:03;9.88;;;6.57;;
54945;SDS011;40846;44.788;20.486;2022-08-21T08:19:29;13.10;;;7.30;;
54945;SDS011;40846;44.788;20.486;2022-08-21T08:21:56;14.57;;;6.55;;
54945;SDS011;40846;44.788;20.486;2022-08-21T08:24:22;12.95;;;7.00;;
54945;SDS011;40846;44.788;20.486;2022-08-21T08:26:48;15.00;;;8.65;;
54945;SDS011;40846;44.788;20.486;2022-08-21T08:29:14;13.30;;;7.88;;
54945;SDS011;40846;44.788;20.486;2022-08-21T08:31:40;16.55;;;7.95;;
54945;SDS011;40846;44.788;20.486;2022-08-21T08:34:06;14.80;;;8.55;;
54945;SDS011;40846;44.788;20.486;2022-08-21T08:36:34;23.73;;;10.63;;
54945;SDS011;40846;44.788;20.486;2022-08-21T08:39:02;13.82;;;10.48;;
54945;SDS011;40846;44.788;20.486;2022-08-21T08:41:28;14.20;;;10.00;;
54945;SDS011;40846;44.788;20.486;2022-08-21T08:43:57;24.08;;;12.63;;
54945;SDS011;40846;44.788;20.486;2022-08-21T08:46:46;17.85;;;12.18;;
54945;SDS011;40846;44.788;20.486;2022-08-21T08:54:07;17.25;;;11.90;;
54945;SDS011;40846;44.788;20.486;2022-08-21T08:56:35;20.77;;;12.73;;
54945;SDS011;40846;44.788;20.486;2022-08-21T08:59:02;16.50;;;11.35;;
54945;SDS011;40846;44.788;20.486;2022-08-21T09:01:33;18.10;;;11.57;;
54945;SDS011;40846;44.788;20.486;2022-08-21T09:03:59;16.98;;;13.00;;
54945;SDS011;40846;44.788;20.486;2022-08-21T09:09:18;19.15;;;10.77;;
54945;SDS011;40846;44.788;20.486;2022-08-21T09:14:22;19.52;;;11.93;;
54945;SDS011;40846;44.788;20.486;2022-08-21T09:17:04;18.35;;;11.95;;
54945;SDS011;40846;44.788;20.486;2022-08-21T09:27:13;13.45;;;9.60;;
54945;SDS011;40846;44.788;20.486;2022-08-21T09:29:40;15.77;;;10.13;;
54945;SDS011;40846;44.788;20.486;2022-08-21T09:32:18;21.20;;;12.00;;
54945;SDS011;40846;44.788;20.486;2022-08-21T09:37:27;19.45;;;10.88;;
54945;SDS011;40846;44.788;20.486;2022-08-21T09:39:57;17.83;;;10.25;;
54945;SDS011;40846;44.788;20.486;2022-08-21T09:42:28;18.50;;;11.80;;
54945;SDS011;40846;44.788;20.486;2022-08-21T09:47:32;19.88;;;11.60;;
54945;SDS011;40846;44.788;20.486;2022-08-21T09:50:07;21.65;;;11.23;;
54945;SDS011;40846;44.788;20.486;2022-08-21T09:52:33;20.98;;;11.88;;
54945;SDS011;40846;44.788;20.486;2022-08-21T09:54:59;18.00;;;10.88;;
54945;SDS011;40846;44.788;20.486;2022-08-21T09:57:45;18.25;;;10.85;;
54945;SDS011;40846;44.788;20.486;2022-08-21T10:00:24;15.30;;;10.95;;
54945;SDS011;40846;44.788;20.486;2022-08-21T10:02:50;18.73;;;10.60;;
54945;SDS011;40846;44.788;20.486;2022-08-21T10:05:22;18.13;;;10.32;;
54945;SDS011;40846;44.788;20.486;2022-08-21T10:07:48;13.32;;;9.88;;
54945;SDS011;40846;44.788;20.486;2022-08-21T10:10:17;15.70;;;10.52;;
54945;SDS011;40846;44.788;20.486;2022-08-21T10:12:46;13.75;;;9.20;;
54945;SDS011;40846;44.788;20.486;2022-08-21T10:18:01;21.92;;;10.18;;
54945;SDS011;40846;44.788;20.486;2022-08-21T10:20:40;22.65;;;8.82;;
54945;SDS011;40846;44.788;20.486;2022-08-21T10:28:31;16.42;;;6.30;;
54945;SDS011;40846;44.788;20.486;2022-08-21T10:31:10;10.90;;;6.18;;
54945;SDS011;40846;44.788;20.486;2022-08-21T10:33:45;7.65;;;4.55;;
54945;SDS011;40846;44.788;20.486;2022-08-21T10:41:51;19.23;;;6.47;;
54945;SDS011;40846;44.788;20.486;2022-08-21T10:49:06;18.92;;;6.50;;
54945;SDS011;40846;44.788;20.486;2022-08-21T10:51:48;17.27;;;8.38;;
54945;SDS011;40846;44.788;20.486;2022-08-21T10:56:47;20.50;;;4.55;;
54945;SDS011;40846;44.788;20.486;2022-08-21T10:59:28;10.80;;;3.92;;
54945;SDS011;40846;44.788;20.486;2022-08-21T11:04:30;6.90;;;3.00;;
54945;SDS011;40846;44.788;20.486;2022-08-21T11:07:20;8.05;;;3.72;;
54945;SDS011;40846;44.788;20.486;2022-08-21T11:09:44;10.57;;;4.97;;
54945;SDS011;40846;44.788;20.486;2022-08-21T11:12:22;7.78;;;5.00;;
54945;SDS011;40846;44.788;20.486;2022-08-21T11:17:30;11.30;;;5.13;;
54945;SDS011;40846;44.788;20.486;2022-08-21T11:22:47;10.77;;;5.25;;
54945;SDS011;40846;44.788;20.486;2022-08-21T11:25:20;8.90;;;5.25;;
54945;SDS011;40846;44.788;20.486;2022-08-21T11:28:01;13.70;;;5.50;;
54945;SDS011;40846;44.788;20.486;2022-08-21T11:30:35;8.23;;;5.30;;
54945;SDS011;40846;44.788;20.486;2022-08-21T11:33:14;10.13;;;5.05;;
54945;SDS011;40846;44.788;20.486;2022-08-21T11:35:50;9.98;;;5.93;;
54945;SDS011;40846;44.788;20.486;2022-08-21T11:38:29;11.13;;;5.70;;
54945;SDS011;40846;44.788;20.486;2022-08-21T11:46:38;10.23;;;5.07;;
54945;SDS011;40846;44.788;20.486;2022-08-21T11:49:23;8.95;;;4.75;;
54945;SDS011;40846;44.788;20.486;2022-08-21T11:56:57;9.23;;;6.45;;
54945;SDS011;40846;44.788;20.486;2022-08-21T11:59:42;10.68;;;7.60;;
54945;SDS011;40846;44.788;20.486;2022-08-21T12:02:12;14.73;;;7.72;;
54945;SDS011;40846;44.788;20.486;2022-08-21T12:04:44;13.35;;;8.27;;
54945;SDS011;40846;44.788;20.486;2022-08-21T12:07:12;11.05;;;8.77;;
54945;SDS011;40846;44.788;20.486;2022-08-21T12:09:38;15.02;;;8.77;;
54945;SDS011;40846;44.788;20.486;2022-08-21T12:12:38;11.68;;;8.68;;
54945;SDS011;40846;44.788;20.486;2022-08-21T12:17:36;12.35;;;9.32;;
54945;SDS011;40846;44.788;20.486;2022-08-21T12:23:04;14.32;;;8.52;;
54945;SDS011;40846;44.788;20.486;2022-08-21T12:28:15;11.10;;;8.50;;
54945;SDS011;40846;44.788;20.486;2022-08-21T12:30:47;13.02;;;9.20;;
54945;SDS011;40846;44.788;20.486;2022-08-21T12:35:49;14.50;;;9.82;;
54945;SDS011;40846;44.788;20.486;2022-08-21T12:38:17;14.43;;;10.48;;
54945;SDS011;40846;44.788;20.486;2022-08-21T12:40:49;14.30;;;10.23;;
54945;SDS011;40846;44.788;20.486;2022-08-21T12:43:20;13.38;;;10.63;;
54945;SDS011;40846;44.788;20.486;2022-08-21T12:45:48;12.25;;;10.27;;
54945;SDS011;40846;44.788;20.486;2022-08-21T12:50:44;15.07;;;8.63;;
54945;SDS011;40846;44.788;20.486;2022-08-21T12:53:12;13.23;;;8.70;;
54945;SDS011;40846;44.788;20.486;2022-08-21T12:55:42;10.77;;;8.70;;
54945;SDS011;40846;44.788;20.486;2022-08-21T12:58:22;10.63;;;7.32;;
54945;SDS011;40846;44.788;20.486;2022-08-21T13:00:49;9.50;;;6.78;;
54945;SDS011;40846;44.788;20.486;2022-08-21T13:03:16;9.77;;;7.38;;
54945;SDS011;40846;44.788;20.486;2022-08-21T13:05:42;8.93;;;6.07;;
54945;SDS011;40846;44.788;20.486;2022-08-21T13:08:09;11.82;;;6.57;;
54945;SDS011;40846;44.788;20.486;2022-08-21T13:10:36;7.38;;;5.40;;
54945;SDS011;40846;44.788;20.486;2022-08-21T13:13:03;7.38;;;5.20;;
54945;SDS011;40846;44.788;20.486;2022-08-21T13:15:34;8.20;;;5.45;;
54945;SDS011;40846;44.788;20.486;2022-08-21T13:18:02;7.35;;;5.50;;
54945;SDS011;40846;44.788;20.486;2022-08-21T13:20:38;6.10;;;4.45;;
54945;SDS011;40846;44.788;20.486;2022-08-21T13:23:07;5.75;;;4.40;;
54945;SDS011;40846;44.788;20.486;2022-08-21T13:25:41;7.55;;;5.20;;
54945;SDS011;40846;44.788;20.486;2022-08-21T13:28:09;9.10;;;6.25;;
54945;SDS011;40846;44.788;20.486;2022-08-21T13:30:40;6.05;;;4.68;;
54945;SDS011;40846;44.788;20.486;2022-08-21T13:33:08;16.45;;;4.72;;
54945;SDS011;40846;44.788;20.486;2022-08-21T13:35:45;5.60;;;3.88;;
54945;SDS011;40846;44.788;20.486;2022-08-21T13:38:12;6.80;;;3.90;;
54945;SDS011;40846;44.788;20.486;2022-08-21T13:40:40;5.00;;;3.60;;
54945;SDS011;40846;44.788;20.486;2022-08-21T13:43:15;4.63;;;3.15;;
54945;SDS011;40846;44.788;20.486;2022-08-21T13:45:43;6.07;;;3.92;;
54945;SDS011;40846;44.788;20.486;2022-08-21T13:48:09;5.72;;;3.58;;
54945;SDS011;40846;44.788;20.486;2022-08-21T13:50:36;4.75;;;3.63;;
54945;SDS011;40846;44.788;20.486;2022-08-21T13:53:06;9.98;;;3.90;;
54945;SDS011;40846;44.788;20.486;2022-08-21T13:55:40;5.10;;;3.92;;
54945;SDS011;40846;44.788;20.486;2022-08-21T13:58:07;5.25;;;4.25;;
54945;SDS011;40846;44.788;20.486;2022-08-21T14:00:34;7.18;;;4.72;;
54945;SDS011;40846;44.788;20.486;2022-08-21T14:03:06;9.82;;;4.47;;
54945;SDS011;40846;44.788;20.486;2022-08-21T14:05:34;6.60;;;5.00;;
54945;SDS011;40846;44.788;20.486;2022-08-21T14:08:04;5.70;;;4.03;;
54945;SDS011;40846;44.788;20.486;2022-08-21T14:10:31;7.30;;;3.78;;
54945;SDS011;40846;44.788;20.486;2022-08-21T14:13:01;4.80;;;3.40;;
54945;SDS011;40846;44.788;20.486;2022-08-21T14:15:29;6.23;;;3.70;;
54945;SDS011;40846;44.788;20.486;2022-08-21T14:18:15;5.68;;;3.55;;
54945;SDS011;40846;44.788;20.486;2022-08-21T14:20:42;4.65;;;3.72;;
54945;SDS011;40846;44.788;20.486;2022-08-21T14:23:08;5.07;;;3.65;;
54945;SDS011;40846;44.788;20.486;2022-08-21T14:25:42;7.72;;;3.60;;
54945;SDS011;40846;44.788;20.486;2022-08-21T14:30:44;9.27;;;4.20;;
54945;SDS011;40846;44.788;20.486;2022-08-21T14:33:11;4.75;;;3.78;;
54945;SDS011;40846;44.788;20.486;2022-08-21T14:35:38;6.57;;;4.10;;
54945;SDS011;40846;44.788;20.486;2022-08-21T14:38:12;4.53;;;3.85;;
54945;SDS011;40846;44.788;20.486;2022-08-21T14:40:38;7.07;;;4.00;;
54945;SDS011;40846;44.788;20.486;2022-08-21T14:43:04;5.57;;;4.13;;
54945;SDS011;40846;44.788;20.486;2022-08-21T14:45:30;7.22;;;5.13;;
54945;SDS011;40846;44.788;20.486;2022-08-21T14:47:57;7.70;;;5.05;;
54945;SDS011;40846;44.788;20.486;2022-08-21T14:50:24;8.23;;;5.25;;
54945;SDS011;40846;44.788;20.486;2022-08-21T14:52:50;7.80;;;5.40;;
54945;SDS011;40846;44.788;20.486;2022-08-21T14:55:17;10.73;;;6.00;;
54945;SDS011;40846;44.788;20.486;2022-08-21T14:57:47;8.48;;;6.32;;
54945;SDS011;40846;44.788;20.486;2022-08-21T15:00:15;6.72;;;6.03;;
54945;SDS011;40846;44.788;20.486;2022-08-21T15:02:42;8.52;;;6.30;;
54945;SDS011;40846;44.788;20.486;2022-08-21T15:05:08;10.63;;;6.30;;
54945;SDS011;40846;44.788;20.486;2022-08-21T15:07:34;11.63;;;7.03;;
54945;SDS011;40846;44.788;20.486;2022-08-21T15:10:00;9.63;;;6.75;;
54945;SDS011;40846;44.788;20.486;2022-08-21T15:12:26;13.07;;;6.68;;
54945;SDS011;40846;44.788;20.486;2022-08-21T15:14:52;8.32;;;7.38;;
54945;SDS011;40846;44.788;20.486;2022-08-21T15:17:19;10.55;;;7.47;;
54945;SDS011;40846;44.788;20.486;2022-08-21T15:19:45;13.18;;;7.63;;
54945;SDS011;40846;44.788;20.486;2022-08-21T15:22:11;9.45;;;7.53;;
54945;SDS011;40846;44.788;20.486;2022-08-21T15:24:37;10.30;;;7.47;;
54945;SDS011;40846;44.788;20.486;2022-08-21T15:27:03;15.93;;;8.43;;
54945;SDS011;40846;44.788;20.486;2022-08-21T15:29:32;12.57;;;8.27;;
54945;SDS011;40846;44.788;20.486;2022-08-21T15:31:59;11.35;;;7.60;;
54945;SDS011;40846;44.788;20.486;2022-08-21T15:34:27;10.00;;;8.27;;
54945;SDS011;40846;44.788;20.486;2022-08-21T15:36:54;9.27;;;7.80;;
54945;SDS011;40846;44.788;20.486;2022-08-21T15:39:21;9.63;;;7.78;;
54945;SDS011;40846;44.788;20.486;2022-08-21T15:41:47;10.70;;;8.20;;
54945;SDS011;40846;44.788;20.486;2022-08-21T15:44:14;12.63;;;8.10;;
54945;SDS011;40846;44.788;20.486;2022-08-21T15:46:40;20.55;;;15.38;;
54945;SDS011;40846;44.788;20.486;2022-08-21T15:49:06;22.85;;;11.35;;
54945;SDS011;40846;44.788;20.486;2022-08-21T15:51:33;11.27;;;8.43;;